Time;durP1;ratioP1;P1;durP2;ratioP2;P2;SDS_P1;SDS_P2;PMS_P1;PMS_P2;Temp;Humidity;BMP_temperature;BMP_pressure;BME280_temperature;BME280_humidity;BME280_pressure;Samples;Min_cycle;Max_cycle;Signal;HPM_P1;HPM_P2
2022/09/27 00:00:30;;;;;;;83.35;77.15;;;;;;;15.61;100.00;100105.81;4912658;29;20083;-88
2022/09/27 00:28:18;;;;;;;;;;;;;;;;;;;;;
2022/09/27 00:35:06;;;;;;;90.10;83.25;;;;;;;15.42;100.00;100075.13;4914413;28;20511;-92
2022/09/27 00:37:33;;;;;;;99.20;90.82;;;;;;;15.54;100.00;100081.13;5019346;28;20454;-90
2022/09/27 00:40:00;;;;;;;96.53;88.32;;;;;;;15.60;100.00;100090.03;5017902;28;20042;-90
2022/09/27 00:42:29;;;;;;;93.15;85.22;;;;;;;15.37;100.00;100080.44;5013059;28;20161;-91
2022/09/27 00:45:16;;;;;;;103.80;95.20;;;;;;;15.53;100.00;100080.34;5019429;28;20053;-92
2022/09/27 00:47:51;;;;;;;101.22;92.00;;;;;;;15.61;100.00;100067.53;5013348;28;20053;-91
2022/09/27 00:50:28;;;;;;;101.15;92.10;;;;;;;15.51;100.00;100055.69;5014487;28;20045;-92
2022/09/27 00:53:17;;;;;;;95.05;87.38;;;;;;;15.35;100.00;100053.94;5018738;28;20052;-91
2022/09/27 00:55:50;;;;;;;117.10;107.95;;;;;;;15.47;100.00;100048.44;5019679;28;20466;-89
2022/09/27 00:58:42;;;;;;;126.88;117.68;;;;;;;15.52;100.00;100043.09;5021059;28;20050;-92
2022/09/27 01:01:23;;;;;;;110.40;102.75;;;;;;;15.16;100.00;100036.63;5005104;28;20394;-90
2022/09/27 01:04:01;;;;;;;97.65;90.28;;;;;;;15.32;100.00;100041.88;5014041;28;20050;-91
2022/09/27 01:06:29;;;;;;;112.80;101.60;;;;;;;15.30;100.00;100032.47;5020233;28;20054;-88
2022/09/27 01:08:57;;;;;;;111.25;100.65;;;;;;;15.37;100.00;100032.28;5026072;28;20137;-91
2022/09/27 01:11:41;;;;;;;88.18;80.68;;;;;;;15.46;100.00;100034.25;5016045;28;20046;-89
2022/09/27 01:14:36;;;;;;;76.22;69.78;;;;;;;15.02;100.00;100038.91;5020458;28;20073;-91
2022/09/27 01:17:17;;;;;;;74.53;68.20;;;;;;;14.96;100.00;100042.56;5015030;28;20050;-88
2022/09/27 01:20:23;;;;;;;87.20;80.22;;;;;;;15.28;100.00;100047.97;5020649;28;20077;-93
2022/09/27 01:26:26;;;;;;;86.30;80.10;;;;;;;15.52;100.00;100061.84;5016726;28;20069;-91
2022/09/27 01:29:07;;;;;;;82.05;75.55;;;;;;;15.43;100.00;100061.50;5018671;28;20046;-92
2022/09/27 01:31:42;;;;;;;85.97;79.07;;;;;;;15.41;100.00;100060.94;5015032;28;20045;-90
2022/09/27 01:34:35;;;;;;;75.68;69.85;;;;;;;15.55;100.00;100058.66;5012495;28;20125;-92
2022/09/27 01:37:08;;;;;;;80.70;74.57;;;;;;;15.62;100.00;100058.47;5018119;28;20064;-89
2022/09/27 01:40:10;;;;;;;72.93;67.43;;;;;;;15.28;100.00;100058.66;5011585;28;20053;-92
2022/09/27 01:43:03;;;;;;;81.82;75.57;;;;;;;15.26;100.00;100050.09;5012122;28;20061;-92
2022/09/27 01:45:46;;;;;;;85.57;79.07;;;;;;;15.41;100.00;100042.22;5018899;28;20049;-90
2022/09/27 01:48:17;;;;;;;;;;;;;;;15.52;100.00;100053.81;5019531;28;20064;-88
2022/09/27 01:50:55;;;;;;;78.43;71.82;;;;;;;14.97;100.00;100050.34;5024022;28;20353;-92
2022/09/27 01:53:43;;;;;;;92.05;84.35;;;;;;;15.48;100.00;100050.84;5018096;28;20117;-91
2022/09/27 01:56:26;;;;;;;84.03;76.43;;;;;;;15.51;100.00;100052.19;5012935;28;20050;-94
2022/09/27 01:59:13;;;;;;;95.57;87.50;;;;;;;15.36;100.00;100052.88;5029333;28;20120;-92
2022/09/27 02:01:44;;;;;;;81.35;74.13;;;;;;;14.99;100.00;100050.91;5135610;23;20058;-89
2022/09/27 02:04:28;;;;;;;97.57;89.28;;;;;;;15.41;100.00;100052.94;5025236;28;20056;-92
2022/09/27 02:06:59;;;;;;;110.55;101.82;;;;;;;15.49;100.00;100046.28;5015096;28;20061;-89
2022/09/27 02:10:07;;;;;;;105.78;97.50;;;;;;;15.51;100.00;100053.00;5007366;28;20194;-91
2022/09/27 02:13:01;;;;;;;97.43;89.30;;;;;;;15.48;100.00;100058.88;5024114;28;20089;-92
2022/09/27 02:15:46;;;;;;;101.10;92.97;;;;;;;15.60;100.00;100039.16;5018951;28;20119;-91
2022/09/27 02:18:19;;;;;;;107.45;99.32;;;;;;;15.52;100.00;100043.94;5018353;28;20053;-89
2022/09/27 02:20:52;;;;;;;111.55;103.30;;;;;;;15.53;100.00;100032.16;5011102;28;20042;-88
2022/09/27 02:23:23;;;;;;;109.03;100.55;;;;;;;15.26;100.00;100028.72;5021666;28;20117;-89
2022/09/27 02:25:55;;;;;;;110.68;101.68;;;;;;;15.40;100.00;100031.75;5015566;28;20049;-92
2022/09/27 02:28:48;;;;;;;105.10;96.65;;;;;;;15.38;100.00;100017.84;5017788;28;20053;-92
2022/09/27 02:31:16;;;;;;;;;;;;;;;15.35;100.00;100013.81;5017739;28;20038;-88
2022/09/27 02:33:47;;;;;;;116.90;108.35;;;;;;;15.38;100.00;100023.19;5015014;28;19921;-89
2022/09/27 02:36:27;;;;;;;111.47;103.55;;;;;;;15.34;100.00;100014.88;5020868;28;20467;-89
2022/09/27 02:39:02;;;;;;;102.18;94.38;;;;;;;15.35;100.00;100011.13;5016333;28;20097;-91
2022/09/27 02:41:38;;;;;;;100.15;92.85;;;;;;;15.33;100.00;100007.91;5025704;28;20077;-92
2022/09/27 02:44:16;;;;;;;83.63;76.88;;;;;;;15.19;100.00;100009.34;5024153;28;20450;-92
2022/09/27 02:47:11;;;;;;;103.15;95.85;;;;;;;15.24;100.00;100004.06;5024882;28;20085;-92
2022/09/27 02:49:51;;;;;;;94.07;87.63;;;;;;;15.23;100.00;100005.13;5023899;28;20554;-91
2022/09/27 02:52:31;;;;;;;89.45;83.10;;;;;;;14.91;100.00;99997.88;5018162;28;20069;-89
2022/09/27 02:55:11;;;;;;;102.82;95.63;;;;;;;15.18;100.00;99997.06;5022452;28;20493;-89
2022/09/27 02:57:59;;;;;;;83.85;77.40;;;;;;;15.26;100.00;99996.59;5016101;28;20117;-91
2022/09/27 03:00:40;;;;;;;91.18;84.57;;;;;;;15.21;100.00;99994.69;5018229;28;20090;-90
2022/09/27 03:03:13;;;;;;;78.55;72.47;;;;;;;15.13;100.00;99992.47;5021848;28;20496;-89
2022/09/27 03:05:49;;;;;;;81.07;75.05;;;;;;;15.27;100.00;99990.19;5017920;28;20077;-92
2022/09/27 03:11:09;;;;;;;83.88;77.75;;;;;;;15.29;100.00;99993.44;5020444;28;20046;-91
2022/09/27 03:13:40;;;;;;;78.32;72.63;;;;;;;15.19;100.00;99990.63;5020187;28;20054;-91
2022/09/27 03:16:08;;;;;;;90.20;83.07;;;;;;;15.09;100.00;99991.34;5026089;28;20047;-90
2022/09/27 03:18:56;;;;;;;87.05;80.53;;;;;;;15.19;100.00;99993.31;5019456;28;20498;-91
2022/09/27 03:21:25;;;;;;;75.47;69.88;;;;;;;15.30;100.00;99995.81;5022786;28;20570;-91
2022/09/27 03:24:08;;;;;;;75.00;69.30;;;;;;;15.31;100.00;99991.28;5023703;28;20073;-90
2022/09/27 03:26:42;;;;;;;78.63;72.63;;;;;;;15.12;100.00;99994.31;5016181;28;20106;-91
2022/09/27 03:29:13;;;;;;;79.45;73.78;;;;;;;15.14;100.00;99993.28;5008258;28;20463;-91
2022/09/27 03:31:40;;;;;;;78.55;72.50;;;;;;;15.15;100.00;99994.88;5016894;28;20050;-90
2022/09/27 03:34:07;;;;;;;85.40;79.05;;;;;;;15.18;100.00;99989.84;5023731;28;20046;-88
2022/09/27 03:36:34;;;;;;;69.63;64.20;;;;;;;15.00;100.00;99991.00;5012110;28;20065;-89
2022/09/27 03:39:26;;;;;;;88.45;81.32;;;;;;;15.24;100.00;99975.44;5012401;28;20069;-90
2022/09/27 03:42:25;;;;;;;80.45;74.50;;;;;;;15.31;100.00;99983.25;5014626;28;20050;-91
2022/09/27 03:48:14;;;;;;;84.35;78.15;;;;;;;15.19;100.00;99999.50;5004871;28;20072;-91
2022/09/27 03:50:41;;;;;;;84.07;77.78;;;;;;;15.30;100.00;100000.38;5008803;28;20050;-89
2022/09/27 03:53:09;;;;;;;78.90;72.75;;;;;;;15.23;100.00;100007.81;5020138;28;20056;-89
2022/09/27 03:55:37;;;;;;;82.22;76.32;;;;;;;15.40;100.00;99992.47;5015311;28;20057;-89
2022/09/27 03:58:04;;;;;;;78.10;71.90;;;;;;;15.22;100.00;99982.94;5003031;28;20022;-88
2022/09/27 04:00:31;;;;;;;71.90;66.22;;;;;;;15.27;100.00;99987.50;5017861;28;20057;-88
2022/09/27 04:03:05;;;;;;;79.65;72.13;;;;;;;15.26;100.00;99991.25;5015270;28;20045;-90
2022/09/27 04:05:35;;;;;;;79.13;72.18;;;;;;;15.39;100.00;99988.16;5014693;28;20053;-87
2022/09/27 04:08:04;;;;;;;79.03;72.22;;;;;;;15.30;100.00;99987.81;5018865;28;20046;-89
2022/09/27 04:10:31;;;;;;;73.68;67.97;;;;;;;15.29;100.00;99978.16;5008852;28;20061;-90
2022/09/27 04:13:00;;;;;;;76.85;70.95;;;;;;;15.23;100.00;99981.88;5014220;28;20054;-89
2022/09/27 04:15:28;;;;;;;76.28;70.18;;;;;;;15.32;100.00;99977.66;5007167;28;20049;-90
2022/09/27 04:18:05;;;;;;;79.80;73.40;;;;;;;15.38;100.00;99980.38;5021627;28;20486;-91
2022/09/27 04:20:39;;;;;;;75.45;69.30;;;;;;;15.34;100.00;99977.41;5009217;28;20489;-88
2022/09/27 04:23:07;;;;;;;82.43;75.93;;;;;;;15.37;100.00;99968.88;5018455;28;20049;-90
2022/09/27 04:25:34;;;;;;;76.70;70.60;;;;;;;15.35;100.00;99958.44;5019279;28;20113;-91
2022/09/27 04:28:09;;;;;;;73.38;67.53;;;;;;;15.38;100.00;99950.97;5021435;28;20046;-92
2022/09/27 04:30:40;;;;;;;73.50;67.93;;;;;;;15.36;100.00;99956.56;5013695;28;20100;-91
2022/09/27 04:33:08;;;;;;;84.78;78.57;;;;;;;15.31;100.00;99962.69;5020740;28;20045;-91
2022/09/27 04:38:26;;;;;;;72.95;67.00;;;;;;;15.21;100.00;99951.88;5024141;28;20060;-92
2022/09/27 04:40:53;;;;;;;77.45;71.15;;;;;;;15.25;100.00;99955.69;5021314;28;20045;-89
2022/09/27 04:43:21;;;;;;;78.10;72.00;;;;;;;15.18;100.00;99955.06;5010781;28;20496;-90
2022/09/27 04:45:56;;;;;;;79.20;72.82;;;;;;;15.34;100.00;99954.16;5013932;28;20485;-89
2022/09/27 04:48:25;;;;;;;78.95;72.82;;;;;;;15.52;100.00;99944.91;5019210;28;20065;-90
2022/09/27 04:51:04;;;;;;;76.47;70.45;;;;;;;15.38;100.00;99938.38;5007960;28;20049;-91
2022/09/27 04:53:39;;;;;;;73.07;67.28;;;;;;;15.35;100.00;99920.97;5012448;28;20081;-91
2022/09/27 04:56:08;;;;;;;85.40;77.65;;;;;;;15.20;100.00;99920.84;5013364;28;20060;-90
2022/09/27 04:58:55;;;;;;;79.18;72.25;;;;;;;15.34;100.00;99910.53;5010396;28;20072;-91
2022/09/27 05:01:26;;;;;;;77.40;71.00;;;;;;;15.25;100.00;99909.38;5013651;28;20072;-91
2022/09/27 05:03:56;;;;;;;78.53;71.95;;;;;;;15.47;100.00;99920.78;5016233;28;20046;-92
2022/09/27 05:06:24;;;;;;;79.75;72.78;;;;;;;15.50;100.00;99898.88;5013227;28;20141;-89
2022/09/27 05:08:54;;;;;;;79.68;72.78;;;;;;;15.47;100.00;99901.25;5034024;28;20081;-91
2022/09/27 05:11:24;;;;;;;79.32;72.60;;;;;;;15.56;100.00;99902.38;5017790;28;20057;-89
2022/09/27 05:13:58;;;;;;;76.53;70.13;;;;;;;15.52;100.00;99893.22;5017518;28;20149;-92
2022/09/27 05:20:26;;;;;;;;;;;;;;;;;;;;;
2022/09/27 05:23:07;;;;;;;85.57;78.95;;;;;;;15.79;100.00;99896.66;5016638;28;20065;-92
2022/09/27 05:25:35;;;;;;;77.82;71.80;;;;;;;15.56;100.00;99894.34;5014129;28;20107;-92
2022/09/27 05:28:03;;;;;;;84.93;78.50;;;;;;;15.73;100.00;99895.03;5023082;28;20064;-89
2022/09/27 05:30:34;;;;;;;79.97;73.32;;;;;;;15.66;100.00;99902.44;5020349;28;20045;-90
2022/09/27 05:33:08;;;;;;;81.07;73.85;;;;;;;15.97;100.00;99903.41;5013549;28;20056;-92
2022/09/27 05:35:54;;;;;;;82.63;76.13;;;;;;;15.82;100.00;99899.88;5021135;28;20073;-91
2022/09/27 05:38:21;;;;;;;92.75;85.55;;;;;;;15.94;100.00;99911.16;5019597;28;20069;-89
2022/09/27 05:40:49;;;;;;;84.40;77.88;;;;;;;15.89;100.00;99911.16;5020434;28;20128;-90
2022/09/27 05:43:17;;;;;;;87.82;81.22;;;;;;;15.90;100.00;99907.41;5020684;28;20046;-90
2022/09/27 05:46:04;;;;;;;86.45;80.15;;;;;;;15.96;100.00;99909.03;5024878;28;20414;-91
2022/09/27 05:48:31;;;;;;;82.57;76.32;;;;;;;15.88;100.00;99904.97;5019641;28;20050;-88
2022/09/27 05:51:19;;;;;;;89.18;82.63;;;;;;;15.91;100.00;99903.66;5019681;28;20062;-91
2022/09/27 05:53:46;;;;;;;84.88;78.20;;;;;;;16.17;100.00;99893.88;5016260;28;20050;-90
2022/09/27 05:56:19;;;;;;;85.65;78.85;;;;;;;16.34;100.00;99893.63;5020618;28;20060;-90
2022/09/27 05:58:46;;;;;;;83.22;76.65;;;;;;;16.40;100.00;99904.13;5020464;28;20060;-88
2022/09/27 06:01:15;;;;;;;79.13;72.80;;;;;;;16.43;100.00;99905.44;5017494;28;20076;-91
2022/09/27 06:03:46;;;;;;;82.40;76.10;;;;;;;16.40;100.00;99900.63;5018684;28;20053;-89
2022/09/27 06:06:19;;;;;;;86.90;80.05;;;;;;;16.29;100.00;99902.47;5018648;28;20042;-91
2022/09/27 06:08:46;;;;;;;88.43;81.68;;;;;;;16.37;100.00;99898.47;5024177;28;20057;-92
2022/09/27 06:11:14;;;;;;;80.53;74.43;;;;;;;16.34;100.00;99896.31;5020408;28;20046;-89
2022/09/27 06:13:41;;;;;;;84.88;77.97;;;;;;;16.37;100.00;99885.06;5024250;28;20482;-91
2022/09/27 06:16:12;;;;;;;85.32;78.68;;;;;;;16.53;100.00;99878.69;5020698;28;20066;-91
2022/09/27 06:21:30;;;;;;;89.32;82.72;;;;;;;16.95;100.00;99893.78;5022748;28;20152;-92
2022/09/27 06:24:02;;;;;;;83.32;77.07;;;;;;;16.83;100.00;99890.56;5025949;28;20049;-92
2022/09/27 06:26:32;;;;;;;89.70;83.13;;;;;;;17.03;100.00;99892.44;5021934;28;20053;-90
2022/09/27 06:29:03;;;;;;;83.53;77.43;;;;;;;16.98;100.00;99908.53;5021903;28;20049;-91
2022/09/27 06:31:33;;;;;;;84.80;78.45;;;;;;;17.26;100.00;99913.34;5012386;28;20129;-91
2022/09/27 06:34:03;;;;;;;87.13;80.43;;;;;;;17.35;100.00;99922.47;5021336;28;20401;-89
2022/09/27 06:36:32;;;;;;;85.80;79.40;;;;;;;17.47;100.00;99908.78;5021055;28;20058;-89
2022/09/27 06:39:09;;;;;;;79.45;73.45;;;;;;;17.31;100.00;99907.19;5023517;28;20042;-90
2022/09/27 06:41:40;;;;;;;80.75;74.75;;;;;;;17.26;100.00;99904.50;5017299;28;20041;-89
2022/09/27 06:44:19;;;;;;;79.72;73.68;;;;;;;17.27;100.00;99903.41;5021421;28;20054;-92
2022/09/27 06:46:46;;;;;;;80.70;74.72;;;;;;;17.19;100.00;99902.09;5014470;28;20085;-89
2022/09/27 06:49:16;;;;;;;83.03;76.93;;;;;;;17.27;100.00;99884.63;5015453;28;20088;-90
2022/09/27 06:51:43;;;;;;;78.13;72.13;;;;;;;17.28;100.00;99895.13;5019364;28;20519;-89
2022/09/27 06:54:10;;;;;;;87.22;80.93;;;;;;;17.39;100.00;99890.53;5022094;28;20057;-90
2022/09/27 06:56:42;;;;;;;89.03;82.53;;;;;;;17.36;100.00;99883.00;5020380;28;20053;-92
2022/09/27 07:01:54;;;;;;;91.72;84.88;;;;;;;17.55;100.00;99877.88;5021933;28;20101;-89
2022/09/27 07:04:28;;;;;;;92.20;84.63;;;;;;;17.74;100.00;99884.28;5017977;28;20065;-92
2022/09/27 07:06:55;;;;;;;89.50;82.97;;;;;;;17.62;100.00;99899.88;5014352;28;20113;-89
2022/09/27 07:09:23;;;;;;;96.45;89.57;;;;;;;17.56;100.00;99904.47;5018236;28;20120;-89
2022/09/27 07:11:54;;;;;;;93.07;86.05;;;;;;;17.71;100.00;99897.44;5017512;28;20046;-89
2022/09/27 07:14:43;;;;;;;103.50;95.70;;;;;;;17.63;100.00;99902.28;5018482;28;20557;-90
2022/09/27 07:17:18;;;;;;;97.40;90.45;;;;;;;17.50;100.00;99899.38;5020255;28;20111;-91
2022/09/27 07:19:47;;;;;;;98.68;91.05;;;;;;;17.80;100.00;99891.28;5018465;28;20046;-89
2022/09/27 07:22:14;;;;;;;93.97;86.78;;;;;;;17.58;100.00;99888.09;5018143;28;20052;-88
2022/09/27 07:24:41;;;;;;;106.60;99.00;;;;;;;17.62;100.00;99898.00;5022606;28;20042;-90
2022/09/27 07:27:12;;;;;;;103.00;95.50;;;;;;;17.83;100.00;99892.59;5022775;28;20125;-90
2022/09/27 07:29:39;;;;;;;100.03;92.68;;;;;;;17.78;100.00;99889.94;5020771;28;20084;-88
2022/09/27 07:32:06;;;;;;;93.25;86.55;;;;;;;18.03;100.00;99881.78;5007741;28;20061;-88
2022/09/27 07:34:33;;;;;;;104.95;97.75;;;;;;;18.15;100.00;99870.69;5012650;28;20046;-88
2022/09/27 07:37:04;;;;;;;101.68;94.28;;;;;;;18.14;100.00;99876.38;5009695;28;20060;-89
2022/09/27 07:39:31;;;;;;;96.70;89.80;;;;;;;18.26;100.00;99860.72;5012047;28;20104;-89
2022/09/27 07:41:59;;;;;;;97.55;90.45;;;;;;;18.23;100.00;99872.81;5015385;28;20103;-92
2022/09/27 07:44:27;;;;;;;102.68;95.53;;;;;;;18.36;100.00;99868.72;5018663;28;20140;-89
2022/09/27 07:46:54;;;;;;;94.00;87.20;;;;;;;18.35;100.00;99853.66;5012025;28;20054;-92
2022/09/27 07:49:21;;;;;;;92.47;86.13;;;;;;;18.20;100.00;99851.06;5013511;28;20070;-89
2022/09/27 07:51:48;;;;;;;97.07;89.80;;;;;;;18.36;100.00;99847.19;5015231;28;20045;-89
2022/09/27 07:54:25;;;;;;;99.35;92.15;;;;;;;18.39;100.00;99860.09;5017081;28;20121;-91
2022/09/27 07:57:19;;;;;;;112.80;104.28;;;;;;;18.69;100.00;99844.84;5021173;28;20046;-92
2022/09/27 07:59:55;;;;;;;96.82;89.35;;;;;;;18.32;100.00;99840.78;5013129;28;20112;-92
2022/09/27 08:02:23;;;;;;;93.57;86.25;;;;;;;18.28;100.00;99850.50;5013528;28;20109;-89
2022/09/27 08:04:50;;;;;;;100.40;93.20;;;;;;;18.47;100.00;99845.25;5014917;28;20367;-90
2022/09/27 08:07:24;;;;;;;108.50;101.03;;;;;;;18.69;100.00;99853.69;5011082;28;20057;-92
2022/09/27 08:09:58;;;;;;;98.25;91.15;;;;;;;18.84;100.00;99863.56;5023207;28;20042;-89
2022/09/27 08:12:25;;;;;;;98.57;90.22;;;;;;;18.88;100.00;99869.19;5021271;28;20057;-91
2022/09/27 08:14:52;;;;;;;96.03;89.57;;;;;;;18.44;100.00;99886.16;5015322;28;20101;-90
2022/09/27 08:17:21;;;;;;;85.47;79.57;;;;;;;18.56;100.00;99896.56;5025601;28;20084;-89
2022/09/27 08:20:04;;;;;;;89.20;83.10;;;;;;;18.59;100.00;99882.56;5015682;28;20562;-92
2022/09/27 08:22:43;;;;;;;102.05;94.93;;;;;;;18.71;100.00;99883.81;5016714;28;20038;-92
2022/09/27 08:25:13;;;;;;;114.38;106.45;;;;;;;18.66;100.00;99894.59;5018937;28;20041;-88
2022/09/27 08:27:43;;;;;;;106.57;99.45;;;;;;;18.49;100.00;99904.94;5018590;28;20069;-91
2022/09/27 08:30:15;;;;;;;104.88;97.72;;;;;;;18.72;100.00;99911.50;5011689;28;20046;-89
2022/09/27 08:32:47;;;;;;;102.97;95.35;;;;;;;18.74;100.00;99912.88;5018203;28;20050;-90
2022/09/27 08:35:40;;;;;;;119.87;111.53;;;;;;;18.85;100.00;99910.94;5018282;28;20060;-92
2022/09/27 08:38:30;;;;;;;121.20;113.07;;;;;;;18.67;100.00;99912.38;5013310;28;20285;-91
2022/09/27 08:41:15;;;;;;;116.88;108.10;;;;;;;18.48;100.00;99922.13;5022554;28;20046;-92
2022/09/27 08:43:50;;;;;;;119.72;110.68;;;;;;;18.65;100.00;99914.53;5014396;28;20043;-88
2022/09/27 08:46:28;;;;;;;129.85;120.32;;;;;;;18.85;100.00;99912.78;5015718;28;20069;-89
2022/09/27 08:49:14;;;;;;;146.00;135.40;;;;;;;18.87;100.00;99899.88;5013248;28;20052;-89
2022/09/27 08:51:43;;;;;;;140.77;130.75;;;;;;;18.53;100.00;99896.03;5017973;28;20068;-89
2022/09/27 08:54:17;;;;;;;130.90;120.32;;;;;;;18.81;100.00;99904.47;5021022;28;20050;-90
2022/09/27 08:56:53;;;;;;;133.48;123.45;;;;;;;18.61;100.00;99899.19;5011827;28;20479;-90
2022/09/27 08:59:25;;;;;;;143.20;132.68;;;;;;;18.80;100.00;99894.03;5012349;28;20073;-90
2022/09/27 09:01:54;;;;;;;164.75;148.70;;;;;;;18.95;100.00;99883.94;5010404;28;20049;-89
2022/09/27 09:04:44;;;;;;;148.93;136.77;;;;;;;18.72;100.00;99871.16;5019323;28;20055;-91
2022/09/27 09:07:48;;;;;;;150.45;138.88;;;;;;;18.97;100.00;99875.56;5023619;28;20046;-90
2022/09/27 09:13:36;;;;;;;139.30;128.55;;;;;;;18.96;100.00;99863.22;5011237;28;20058;-90
2022/09/27 09:16:14;;;;;;;154.57;142.85;;;;;;;19.04;100.00;99854.53;5017897;28;20407;-89
2022/09/27 09:19:04;;;;;;;142.70;131.52;;;;;;;19.23;100.00;99850.03;5023897;28;20053;-92
2022/09/27 09:21:49;;;;;;;149.35;137.90;;;;;;;19.26;100.00;99850.56;5011104;28;20054;-92
2022/09/27 09:24:30;;;;;;;145.82;134.93;;;;;;;19.29;100.00;99848.09;5021959;28;20042;-88
2022/09/27 09:27:03;;;;;;;152.32;141.32;;;;;;;19.22;100.00;99856.53;5020542;28;20078;-88
2022/09/27 09:29:52;;;;;;;151.48;139.85;;;;;;;19.35;100.00;99848.84;5013752;28;20064;-89
2022/09/27 09:32:34;;;;;;;156.57;145.10;;;;;;;19.33;100.00;99846.44;5020199;28;20074;-89
2022/09/27 09:35:06;;;;;;;162.47;150.00;;;;;;;19.39;100.00;99849.88;5013184;28;20050;-90
2022/09/27 09:37:39;;;;;;;158.77;146.70;;;;;;;19.47;100.00;99843.88;5019166;28;20303;-89
2022/09/27 09:40:24;;;;;;;185.32;172.27;;;;;;;19.61;100.00;99844.81;5005478;28;20046;-90
2022/09/27 09:42:57;;;;;;;182.35;169.50;;;;;;;19.63;100.00;99833.72;5025470;28;20041;-90
2022/09/27 09:45:36;;;;;;;195.80;182.35;;;;;;;19.41;100.00;99836.94;5016968;28;20046;-92
2022/09/27 09:48:14;;;;;;;183.32;170.45;;;;;;;19.65;100.00;99823.50;5012662;28;20045;-89
2022/09/27 09:50:50;;;;;;;157.20;145.90;;;;;;;19.38;100.00;99822.16;5015872;28;20042;-91
2022/09/27 09:53:20;;;;;;;142.55;132.05;;;;;;;19.16;100.00;99859.53;5017252;28;20057;-89
2022/09/27 09:55:52;;;;;;;146.27;136.05;;;;;;;18.92;100.00;99859.50;5016168;28;20042;-91
2022/09/27 09:58:24;;;;;;;159.32;147.77;;;;;;;19.31;100.00;99845.13;5020235;28;20145;-91
2022/09/27 10:01:10;;;;;;;160.67;148.87;;;;;;;19.21;100.00;99844.16;5023593;28;20045;-91
2022/09/27 10:03:44;;;;;;;130.43;120.72;;;;;;;19.28;100.00;99843.03;5022110;28;20149;-90
2022/09/27 10:06:13;;;;;;;119.15;110.13;;;;;;;18.93;100.00;99837.66;5010516;28;20076;-88
2022/09/27 10:08:41;;;;;;;142.00;132.00;;;;;;;19.25;100.00;99828.22;5021145;28;20048;-90
2022/09/27 10:11:21;;;;;;;133.00;123.18;;;;;;;19.47;100.00;99818.84;5017565;28;20052;-91
2022/09/27 10:14:11;;;;;;;152.70;141.10;;;;;;;19.36;100.00;99820.84;5020214;28;20058;-92
2022/09/27 10:16:56;;;;;;;262.60;235.90;;;;;;;19.49;100.00;99822.88;5021739;28;20113;-91
2022/09/27 10:19:29;;;;;;;169.55;155.82;;;;;;;19.68;100.00;99815.66;5016702;28;20065;-88
2022/09/27 10:22:15;;;;;;;158.43;146.50;;;;;;;19.73;100.00;99803.19;5031350;28;20046;-91
2022/09/27 10:24:55;;;;;;;142.05;131.15;;;;;;;19.66;100.00;99798.16;5026777;28;20077;-89
2022/09/27 10:27:46;;;;;;;113.13;104.22;;;;;;;19.48;100.00;99790.81;5022886;28;20866;-88
2022/09/27 10:30:27;;;;;;;114.43;105.82;;;;;;;19.65;100.00;99791.19;5027025;28;20113;-92
2022/09/27 10:33:00;;;;;;;117.63;108.90;;;;;;;19.76;100.00;99784.59;5026669;28;20053;-89
2022/09/27 10:35:47;;;;;;;115.97;107.38;;;;;;;19.80;100.00;99782.13;5023548;28;20046;-88
2022/09/27 10:38:26;;;;;;;130.23;120.75;;;;;;;19.70;100.00;99795.69;5023682;28;20498;-90
2022/09/27 10:40:55;;;;;;;123.68;114.88;;;;;;;19.71;100.00;99783.84;5025141;28;20102;-91
2022/09/27 10:43:26;;;;;;;129.73;120.43;;;;;;;19.66;100.00;99773.94;5024273;28;20116;-89
2022/09/27 10:46:03;;;;;;;118.13;109.97;;;;;;;19.64;100.00;99765.31;5023867;28;20077;-89
2022/09/27 10:48:32;;;;;;;117.07;108.38;;;;;;;19.67;100.00;99760.19;5022000;28;20129;-89
2022/09/27 10:51:04;;;;;;;130.45;121.13;;;;;;;19.81;100.00;99759.47;5023501;28;20132;-91
2022/09/27 10:53:36;;;;;;;132.13;122.03;;;;;;;19.92;100.00;99760.94;5023646;28;20046;-88
2022/09/27 10:56:03;;;;;;;128.30;119.53;;;;;;;19.72;100.00;99762.00;5021813;28;20061;-88
2022/09/27 10:58:34;;;;;;;116.65;108.55;;;;;;;19.83;100.00;99766.16;5013698;28;20063;-91
2022/09/27 11:01:06;;;;;;;122.60;114.20;;;;;;;19.84;100.00;99767.75;5020081;28;20041;-91
2022/09/27 11:03:46;;;;;;;145.68;135.77;;;;;;;20.19;100.00;99781.03;5009259;28;20042;-89
2022/09/27 11:06:42;;;;;;;103.10;96.20;;;;;;;19.87;100.00;99790.63;5019662;28;20474;-90
2022/09/27 11:09:23;;;;;;;97.45;90.72;;;;;;;19.83;100.00;99778.84;5022503;28;20530;-92
2022/09/27 11:11:50;;;;;;;97.32;90.18;;;;;;;19.90;100.00;99779.28;5017961;28;20057;-89
2022/09/27 11:14:30;;;;;;;89.68;83.72;;;;;;;20.07;100.00;99771.50;5018680;28;20054;-89
2022/09/27 11:17:10;;;;;;;79.47;74.00;;;;;;;19.43;100.00;99784.41;5017357;28;20466;-91
2022/09/27 11:19:59;;;;;;;85.70;80.10;;;;;;;19.74;100.00;99791.34;5018583;28;20056;-90
2022/09/27 11:23:04;;;;;;;92.30;86.20;;;;;;;19.74;100.00;99784.06;5025094;28;20053;-91
2022/09/27 11:25:49;;;;;;;110.25;103.05;;;;;;;20.27;100.00;99777.66;5019455;28;20084;-90
2022/09/27 11:28:43;;;;;;;116.18;108.43;;;;;;;20.53;100.00;99770.00;5019593;28;20114;-89
2022/09/27 11:31:23;;;;;;;120.35;112.43;;;;;;;20.56;100.00;99770.22;5020315;28;20054;-91
2022/09/27 11:34:06;;;;;;;92.30;86.07;;;;;;;20.79;100.00;99760.41;5018106;28;20037;-89
2022/09/27 11:36:51;;;;;;;86.07;80.57;;;;;;;20.90;100.00;99742.13;5010146;28;20060;-88
2022/09/27 11:39:26;;;;;;;78.82;72.80;;;;;;;21.01;100.00;99734.63;5008372;28;20052;-88
2022/09/27 11:42:31;;;;;;;71.22;66.22;;;;;;;20.90;100.00;99752.09;5014768;28;20054;-91
2022/09/27 11:45:12;;;;;;;80.15;75.00;;;;;;;21.08;100.00;99737.72;5006761;28;20042;-89
2022/09/27 11:47:52;;;;;;;88.30;82.33;;;;;;;21.45;100.00;99735.94;5015969;28;20069;-90
2022/09/27 11:51:06;;;;;;;83.63;77.57;;;;;;;21.85;100.00;99738.91;5020643;28;20132;-92
2022/09/27 11:53:52;;;;;;;71.22;66.60;;;;;;;21.81;100.00;99743.28;4978815;28;20399;-89
2022/09/27 11:56:31;;;;;;;68.63;64.13;;;;;;;22.21;100.00;99744.31;5011179;28;20057;-91
2022/09/27 11:59:13;;;;;;;72.82;67.63;;;;;;;21.86;100.00;99735.88;5005687;28;20045;-91
2022/09/27 12:01:50;;;;;;;82.60;76.90;;;;;;;21.87;100.00;99745.56;5016547;28;20050;-87
2022/09/27 12:04:42;;;;;;;68.63;64.32;;;;;;;21.76;100.00;99746.13;5006937;28;20081;-89
2022/09/27 12:07:15;;;;;;;69.68;65.35;;;;;;;21.54;100.00;99757.66;5016931;28;20054;-93
2022/09/27 12:09:50;;;;;;;70.25;65.95;;;;;;;20.94;100.00;99743.13;5010908;28;20057;-90
2022/09/27 12:12:20;;;;;;;65.45;61.63;;;;;;;20.69;100.00;99743.56;5009488;28;20047;-90
2022/09/27 12:14:53;;;;;;;79.78;74.75;;;;;;;20.48;100.00;99743.09;5012883;28;20039;-91
2022/09/27 12:17:26;;;;;;;72.88;68.00;;;;;;;21.24;100.00;99732.81;5020680;28;20053;-92
2022/09/27 12:19:57;;;;;;;82.53;77.43;;;;;;;21.27;100.00;99743.03;5017000;28;20074;-91
2022/09/27 12:22:41;;;;;;;76.40;71.38;;;;;;;21.11;100.00;99741.75;5011136;28;20426;-92
2022/09/27 12:25:16;;;;;;;82.90;78.20;;;;;;;21.26;100.00;99757.63;5009734;28;20049;-91
2022/09/27 12:27:56;;;;;;;75.45;71.03;;;;;;;21.33;100.00;99741.03;5006704;28;20061;-91
2022/09/27 12:30:22;;;;;;;77.05;72.65;;;;;;;21.20;100.00;99748.84;5015755;28;20057;-89
2022/09/27 12:32:57;;;;;;;66.47;62.25;;;;;;;21.21;100.00;99742.34;5014431;28;20051;-89
2022/09/27 12:35:35;;;;;;;88.28;83.15;;;;;;;21.10;100.00;99746.34;5013419;28;20053;-89
2022/09/27 12:38:09;;;;;;;70.75;66.43;;;;;;;20.37;100.00;99742.47;5015372;28;20510;-88
2022/09/27 12:40:40;;;;;;;81.25;76.55;;;;;;;20.57;100.00;99739.47;5019149;28;20400;-88